Time;durP1;ratioP1;P1;durP2;ratioP2;P2;SDS_P1;SDS_P2;PMS_P1;PMS_P2;Temp;Humidity;BMP_temperature;BMP_pressure;BME280_temperature;BME280_humidity;BME280_pressure;Samples;Min_cycle;Max_cycle;Signal;HPM_P1;HPM_P2
2022/09/25 04:43:44;;;;;;;6.40;4.45;;;;;;;;;;6217597;22;19990;-78
2022/09/25 04:46:11;;;;;;;5.35;4.35;;;;;;;;;;6259678;22;20043;-78
2022/09/25 04:48:37;;;;;;;5.60;4.38;;;;;;;;;;6246180;23;20005;-78
2022/09/25 04:51:03;;;;;;;4.72;4.32;;;;;;;;;;6246204;23;20442;-80
2022/09/25 04:53:30;;;;;;;5.95;4.72;;;;;;;;;;6246280;23;20007;-79
2022/09/25 04:56:04;;;;;;;5.03;4.63;;;;;;;;;;6246399;22;20000;-78
2022/09/25 04:58:29;;;;;;;3.95;3.60;;;;;;;;;;6219452;23;20046;-81
2022/09/25 05:00:55;;;;;;;3.70;3.40;;;;;;;;;;6246081;23;20004;-78
2022/09/25 05:03:20;;;;;;;3.55;3.20;;;;;;;;;;6246131;23;20008;-77
2022/09/25 05:05:46;;;;;;;3.70;3.40;;;;;;;;;;6246461;22;20327;-77
2022/09/25 05:08:11;;;;;;;4.13;3.83;;;;;;;;;;6246321;23;20031;-80
2022/09/25 05:10:39;;;;;;;3.13;2.90;;;;;;;;;;6246540;23;20327;-77
2022/09/25 05:13:08;;;;;;;3.58;3.30;;;;;;;;;;6246313;23;20075;-81
2022/09/25 05:15:34;;;;;;;3.13;2.92;;;;;;;;;;6246164;22;20000;-82
2022/09/25 05:18:16;;;;;;;3.53;3.22;;;;;;;;;;6246036;23;19997;-77
2022/09/25 05:20:42;;;;;;;3.88;3.58;;;;;;;;;;6246053;23;20008;-77
2022/09/25 05:23:07;;;;;;;4.05;2.97;;;;;;;;;;6246024;23;20028;-78
2022/09/25 05:25:33;;;;;;;3.30;3.00;;;;;;;;;;6246249;22;20074;-77
2022/09/25 05:28:00;;;;;;;3.97;3.58;;;;;;;;;;6245998;23;20006;-78
2022/09/25 05:30:28;;;;;;;4.13;3.40;;;;;;;;;;6246231;23;19993;-77
2022/09/25 05:32:57;;;;;;;4.07;3.28;;;;;;;;;;6246580;23;20378;-79
2022/09/25 05:35:23;;;;;;;3.33;3.13;;;;;;;;;;6246155;22;20004;-78
2022/09/25 05:37:49;;;;;;;3.60;3.30;;;;;;;;;;6248405;23;20422;-77
2022/09/25 05:40:22;;;;;;;3.58;3.28;;;;;;;;;;6248079;23;20008;-77
2022/09/25 05:42:49;;;;;;;3.85;3.42;;;;;;;;;;6249874;23;20054;-79
2022/09/25 05:45:15;;;;;;;3.97;3.67;;;;;;;;;;6248446;22;20012;-79
2022/09/25 05:47:41;;;;;;;4.18;3.38;;;;;;;;;;6252075;23;20078;-95
2022/09/25 05:50:09;;;;;;;4.18;3.78;;;;;;;;;;6248829;23;20092;-87
2022/09/25 05:52:35;;;;;;;4.28;3.88;;;;;;;;;;6248413;23;20007;-88
2022/09/25 05:55:02;;;;;;;4.18;3.88;;;;;;;;;;6247631;22;20000;-83
2022/09/25 05:57:30;;;;;;;5.00;4.35;;;;;;;;;;6247928;23;20004;-80
2022/09/25 05:59:55;;;;;;;4.78;4.40;;;;;;;;;;6248330;23;20004;-88
2022/09/25 06:02:21;;;;;;;5.00;4.55;;;;;;;;;;6248567;23;20022;-88
2022/09/25 06:04:46;;;;;;;4.78;4.25;;;;;;;;;;6248072;23;20004;-88
2022/09/25 06:07:11;;;;;;;4.53;4.13;;;;;;;;;;6247851;22;20323;-76
2022/09/25 06:09:37;;;;;;;4.97;4.57;;;;;;;;;;6247920;23;20012;-84
2022/09/25 06:12:03;;;;;;;4.93;4.53;;;;;;;;;;6247687;23;20004;-87
2022/09/25 06:14:29;;;;;;;5.30;4.80;;;;;;;;;;6248125;23;20332;-76
2022/09/25 06:16:54;;;;;;;4.82;4.35;;;;;;;;;;6247972;22;20004;-80
2022/09/25 06:19:20;;;;;;;4.93;4.43;;;;;;;;;;6247847;23;20322;-76
2022/09/25 06:21:46;;;;;;;5.13;4.40;;;;;;;;;;6247746;23;20004;-81
2022/09/25 06:24:12;;;;;;;5.03;4.53;;;;;;;;;;6248816;23;20126;-87
2022/09/25 06:26:38;;;;;;;5.60;5.10;;;;;;;;;;6220877;23;20008;-85
2022/09/25 06:29:06;;;;;;;5.68;5.20;;;;;;;;;;6247930;23;20000;-93
2022/09/25 06:50:19;;;;;;;6.75;6.15;;;;;;;;;;6230977;22;20073;-77
2022/09/25 06:52:44;;;;;;;7.05;6.35;;;;;;;;;;6278479;22;20166;-77
2022/09/25 06:55:10;;;;;;;7.20;6.50;;;;;;;;;;6274739;22;20000;-86
2022/09/25 06:57:36;;;;;;;7.95;7.00;;;;;;;;;;6247409;23;20398;-79
2022/09/25 07:00:05;;;;;;;10.10;9.07;;;;;;;;;;6247281;23;20004;-87
2022/09/25 09:57:25;;;;;;;9.00;8.10;;;;;;;;;;6274008;22;20051;-84
2022/09/25 09:59:56;;;;;;;9.82;8.82;;;;;;;;;;6278655;22;20012;-83
2022/09/25 10:02:43;;;;;;;9.27;8.25;;;;;;;;;;6278454;22;20004;-78
2022/09/25 10:05:38;;;;;;;9.88;8.88;;;;;;;;;;6245969;23;20419;-85
2022/09/25 10:08:03;;;;;;;9.65;8.75;;;;;;;;;;6241575;23;20079;-83
2022/09/25 10:10:36;;;;;;;9.52;8.63;;;;;;;;;;6247721;23;20047;-79
2022/09/25 10:13:05;;;;;;;9.57;8.77;;;;;;;;;;6248250;22;20050;-83
2022/09/25 10:15:37;;;;;;;;;;;;;;;;;;6248182;22;20046;-85
2022/09/25 10:18:03;;;;;;;11.82;9.35;;;;;;;;;;6248060;22;19907;-83
2022/09/25 10:20:43;;;;;;;8.68;7.78;;;;;;;;;;6247756;22;20011;-79
2022/09/25 10:23:28;;;;;;;;;;;;;;;;;;6248050;22;20008;-84
2022/09/25 10:25:54;;;;;;;8.25;7.40;;;;;;;;;;6227050;23;19946;-86
2022/09/25 10:28:25;;;;;;;9.85;8.80;;;;;;;;;;6247956;23;20054;-89
2022/09/25 10:30:51;;;;;;;9.65;8.75;;;;;;;;;;6248155;22;20001;-78
2022/09/25 10:33:23;;;;;;;9.90;9.00;;;;;;;;;;6247481;22;20042;-81
2022/09/25 10:35:52;;;;;;;10.52;9.45;;;;;;;;;;6247719;22;20004;-81
2022/09/25 10:38:33;;;;;;;9.13;8.38;;;;;;;;;;6247526;22;20434;-88
2022/09/25 10:41:06;;;;;;;10.23;9.23;;;;;;;;;;6247772;22;20014;-87
2022/09/25 10:43:32;;;;;;;8.57;7.70;;;;;;;;;;6248034;22;20007;-82
2022/09/25 10:46:14;;;;;;;8.25;7.55;;;;;;;;;;6247476;22;20004;-78
2022/09/25 12:39:43;;;;;;;9.40;8.50;;;;;;;;;;6218233;23;20070;-81
2022/09/25 12:42:37;;;;;;;8.30;6.75;;;;;;;;;;6044218;23;20138;-94
2022/09/25 12:45:20;;;;;;;8.43;7.53;;;;;;;;;;6099709;23;20153;-94
2022/09/25 12:48:11;;;;;;;9.85;8.85;;;;;;;;;;6246666;23;20001;-87
2022/09/25 12:50:59;;;;;;;9.88;8.82;;;;;;;;;;6249365;23;20004;-84
2022/09/25 12:53:30;;;;;;;6.50;5.90;;;;;;;;;;6246511;23;20031;-84
2022/09/25 17:43:19;;;;;;;8.50;7.70;;;;;;;;;;6251716;22;20011;-90
2022/09/25 17:45:56;;;;;;;9.75;8.80;;;;;;;;;;6279124;22;20054;-82
2022/09/25 17:48:28;;;;;;;8.02;7.25;;;;;;;;;;6272736;22;20014;-84
2022/09/25 17:50:56;;;;;;;9.57;8.57;;;;;;;;;;6246773;23;20336;-85
2022/09/25 17:53:26;;;;;;;8.60;7.70;;;;;;;;;;6248423;22;20031;-86
2022/09/25 17:55:52;;;;;;;8.20;7.47;;;;;;;;;;6250274;22;20004;-85
2022/09/25 17:58:18;;;;;;;8.05;7.32;;;;;;;;;;6249610;22;20007;-87
2022/09/25 18:00:45;;;;;;;7.97;7.28;;;;;;;;;;6248345;22;20374;-84
2022/09/25 18:03:11;;;;;;;8.00;7.30;;;;;;;;;;6247451;22;20000;-87
2022/09/25 18:05:37;;;;;;;8.65;7.78;;;;;;;;;;6246148;23;20012;-82
2022/09/25 18:08:02;;;;;;;8.52;7.65;;;;;;;;;;6247359;22;20374;-81
2022/09/25 18:10:28;;;;;;;10.10;7.78;;;;;;;;;;6247988;23;20011;-84
2022/09/25 18:12:55;;;;;;;7.57;6.93;;;;;;;;;;6248059;22;20027;-81
2022/09/25 18:15:21;;;;;;;9.63;8.63;;;;;;;;;;6248022;22;20011;-88
2022/09/25 18:17:46;;;;;;;7.50;6.72;;;;;;;;;;6247620;22;20386;-81
2022/09/25 18:22:57;;;;;;;6.47;5.88;;;;;;;;;;6250694;23;20014;-83
2022/09/25 18:25:23;;;;;;;7.50;6.80;;;;;;;;;;6251945;22;20346;-85
2022/09/25 18:27:49;;;;;;;7.97;7.28;;;;;;;;;;6250722;22;20436;-83
2022/09/25 18:30:19;;;;;;;8.65;7.78;;;;;;;;;;6250177;22;20011;-83
2022/09/25 18:32:45;;;;;;;6.00;5.40;;;;;;;;;;6250463;22;20000;-84
2022/09/25 18:35:13;;;;;;;7.78;7.07;;;;;;;;;;6249095;22;20090;-85
2022/09/25 18:37:39;;;;;;;7.13;6.50;;;;;;;;;;6249702;22;20075;-86
2022/09/25 18:40:06;;;;;;;7.63;6.93;;;;;;;;;;6250308;22;20388;-82
2022/09/25 18:42:32;;;;;;;7.40;6.70;;;;;;;;;;6249883;22;20016;-83
2022/09/25 18:44:58;;;;;;;6.63;5.95;;;;;;;;;;6223118;23;20038;-84
2022/09/25 18:47:23;;;;;;;5.78;5.28;;;;;;;;;;6250705;23;20434;-83
2022/09/25 18:49:49;;;;;;;6.28;5.53;;;;;;;;;;6250611;22;20086;-83
2022/09/25 18:52:15;;;;;;;6.03;5.53;;;;;;;;;;6249777;23;20004;-84
2022/09/25 18:54:41;;;;;;;6.20;5.60;;;;;;;;;;6249154;23;20004;-85
2022/09/25 18:57:09;;;;;;;7.15;6.45;;;;;;;;;;6223995;23;20091;-84
2022/09/25 18:59:35;;;;;;;5.85;5.32;;;;;;;;;;6249231;22;20424;-89
2022/09/25 19:02:02;;;;;;;7.32;6.65;;;;;;;;;;6250064;23;20011;-87
2022/09/25 19:04:29;;;;;;;7.00;6.30;;;;;;;;;;6248883;23;20301;-84
2022/09/25 19:06:56;;;;;;;6.95;6.25;;;;;;;;;;6249958;23;20004;-83
2022/09/25 19:09:26;;;;;;;7.78;6.95;;;;;;;;;;6248353;22;20011;-87
2022/09/25 19:11:54;;;;;;;6.82;6.28;;;;;;;;;;6250227;23;20008;-87
2022/09/25 19:14:21;;;;;;;6.18;5.57;;;;;;;;;;6249710;23;20007;-84
2022/09/25 19:16:50;;;;;;;7.10;6.50;;;;;;;;;;6250693;23;20004;-85
2022/09/25 19:19:17;;;;;;;;;;;;;;;;;;6249793;22;20315;-89
2022/09/25 19:21:43;;;;;;;5.85;5.25;;;;;;;;;;6249148;23;19907;-87
2022/09/25 19:24:10;;;;;;;5.97;5.35;;;;;;;;;;6248361;23;20000;-84
2022/09/25 19:26:36;;;;;;;5.45;4.97;;;;;;;;;;6248687;23;20323;-85
2022/09/25 19:29:04;;;;;;;6.38;5.78;;;;;;;;;;6247580;22;20073;-85
2022/09/25 19:31:30;;;;;;;6.20;5.60;;;;;;;;;;6247784;23;20007;-83
2022/09/25 19:33:59;;;;;;;5.32;4.82;;;;;;;;;;6220769;23;20423;-85
2022/09/25 19:36:31;;;;;;;6.13;5.55;;;;;;;;;;6248291;23;20011;-79
2022/09/25 19:39:01;;;;;;;7.35;5.90;;;;;;;;;;6247762;22;19996;-84
2022/09/25 19:41:31;;;;;;;5.60;5.10;;;;;;;;;;6249261;23;20004;-82
2022/09/25 19:43:59;;;;;;;5.68;5.18;;;;;;;;;;6248554;23;20004;-84
2022/09/25 19:46:26;;;;;;;6.73;5.80;;;;;;;;;;6222317;23;20011;-82
2022/09/25 19:48:52;;;;;;;5.07;4.57;;;;;;;;;;6248426;22;20226;-82
2022/09/25 19:51:21;;;;;;;4.60;4.20;;;;;;;;;;6248867;23;20004;-80
2022/09/25 19:53:49;;;;;;;5.85;5.25;;;;;;;;;;6248398;23;20035;-83
2022/09/25 19:56:15;;;;;;;5.78;5.20;;;;;;;;;;6249376;23;20011;-81
2022/09/25 19:58:42;;;;;;;5.78;5.28;;;;;;;;;;6248124;22;20058;-92
2022/09/25 20:01:10;;;;;;;6.43;5.80;;;;;;;;;;6249971;23;20390;-88
2022/09/25 20:03:39;;;;;;;6.35;5.63;;;;;;;;;;6251330;23;20000;-85
2022/09/25 20:06:06;;;;;;;5.63;5.13;;;;;;;;;;6248739;23;20007;-88
2022/09/25 20:08:34;;;;;;;5.93;5.38;;;;;;;;;;6248649;22;20046;-89
2022/09/25 20:11:08;;;;;;;5.22;4.72;;;;;;;;;;6251557;23;20071;-84
2022/09/25 20:13:35;;;;;;;5.40;4.90;;;;;;;;;;6249961;23;19996;-82
2022/09/25 20:16:11;;;;;;;5.75;5.07;;;;;;;;;;6248453;23;20081;-94
2022/09/25 20:18:38;;;;;;;6.38;4.85;;;;;;;;;;6248454;22;20078;-86
2022/09/25 20:21:06;;;;;;;5.93;5.32;;;;;;;;;;6247891;23;20010;-80
2022/09/25 20:23:33;;;;;;;4.95;4.45;;;;;;;;;;6246954;23;20024;-85
2022/09/25 20:26:17;;;;;;;5.68;5.18;;;;;;;;;;6247520;23;20008;-92
2022/09/25 20:28:43;;;;;;;4.97;4.57;;;;;;;;;;6247544;22;20006;-90
2022/09/25 20:31:13;;;;;;;5.25;4.75;;;;;;;;;;6247143;23;20005;-80
2022/09/25 20:33:41;;;;;;;5.40;4.55;;;;;;;;;;6247203;23;20046;-87
2022/09/25 20:36:10;;;;;;;7.47;6.78;;;;;;;;;;6247779;23;20004;-93
2022/09/25 20:38:36;;;;;;;;;;;;;;;;;;6247921;22;20415;-81
2022/09/25 20:41:10;;;;;;;5.63;4.90;;;;;;;;;;6248083;23;19919;-82
2022/09/25 20:43:37;;;;;;;5.35;4.93;;;;;;;;;;6247171;23;20013;-82
2022/09/25 20:46:08;;;;;;;6.13;5.43;;;;;;;;;;6247102;23;20424;-82
2022/09/25 20:48:36;;;;;;;5.00;4.25;;;;;;;;;;6247073;22;20004;-83
2022/09/25 20:51:07;;;;;;;5.07;4.57;;;;;;;;;;6247012;23;20015;-85
2022/09/25 20:53:33;;;;;;;5.65;5.15;;;;;;;;;;6247145;23;20028;-83
2022/09/25 20:56:11;;;;;;;5.60;5.10;;;;;;;;;;6247355;23;20037;-82
2022/09/25 20:58:40;;;;;;;5.68;5.18;;;;;;;;;;6246994;22;20004;-82
2022/09/25 21:01:09;;;;;;;5.95;5.45;;;;;;;;;;6246379;23;20012;-87
2022/09/25 21:03:37;;;;;;;6.65;5.93;;;;;;;;;;6246630;23;20015;-82
2022/09/25 21:06:06;;;;;;;6.95;6.05;;;;;;;;;;6246987;23;20130;-82
2022/09/25 21:08:32;;;;;;;6.15;5.55;;;;;;;;;;6246945;22;20011;-82
2022/09/25 21:11:01;;;;;;;5.88;4.88;;;;;;;;;;6246343;23;20004;-81
2022/09/25 21:13:31;;;;;;;4.90;4.50;;;;;;;;;;6246880;23;20001;-91
2022/09/25 21:16:10;;;;;;;7.35;6.65;;;;;;;;;;6246717;23;20050;-92
2022/09/25 21:18:37;;;;;;;7.17;6.47;;;;;;;;;;6249195;22;20000;-86
2022/09/25 21:21:05;;;;;;;6.10;5.50;;;;;;;;;;6248789;23;20011;-82
2022/09/25 21:23:32;;;;;;;6.03;5.43;;;;;;;;;;6248690;23;20008;-92
2022/09/25 21:26:12;;;;;;;5.35;4.85;;;;;;;;;;6248796;23;20004;-82
2022/09/25 21:28:46;;;;;;;5.18;4.65;;;;;;;;;;6249091;22;20000;-81
2022/09/25 21:31:17;;;;;;;3.80;3.47;;;;;;;;;;6249237;23;20011;-96
2022/09/25 21:33:44;;;;;;;5.65;5.10;;;;;;;;;;6249004;23;20007;-92
2022/09/25 21:36:14;;;;;;;5.57;5.07;;;;;;;;;;6248819;23;20000;-94
2022/09/25 21:38:41;;;;;;;6.80;6.20;;;;;;;;;;6248632;22;19996;-84
2022/09/25 21:41:11;;;;;;;5.53;5.03;;;;;;;;;;6248695;23;20055;-93
2022/09/25 21:43:37;;;;;;;4.80;4.40;;;;;;;;;;6248832;23;20083;-81
2022/09/25 21:46:06;;;;;;;5.20;4.10;;;;;;;;;;6248341;23;20058;-90
2022/09/25 21:48:33;;;;;;;;;;;;;;;;;;6249242;22;20331;-85
2022/09/25 21:50:59;;;;;;;4.05;3.53;;;;;;;;;;6248615;23;19907;-82
2022/09/25 21:53:25;;;;;;;4.22;3.92;;;;;;;;;;6248719;23;20000;-91
2022/09/25 21:56:08;;;;;;;3.75;3.45;;;;;;;;;;6248486;23;20004;-92
2022/09/25 21:58:34;;;;;;;4.78;4.30;;;;;;;;;;6248462;22;20395;-90
2022/09/25 22:01:05;;;;;;;4.50;3.88;;;;;;;;;;6221478;23;20095;-88
